createdAt,value
2022-08-17T00:00:08.240Z,20.82
2022-08-17T00:01:08.309Z,20.78
2022-08-17T00:02:18.728Z,20.84
2022-08-17T00:03:08.237Z,20.75
2022-08-17T00:04:11.730Z,20.75
2022-08-17T00:05:08.230Z,20.80
2022-08-17T00:06:08.225Z,20.78
2022-08-17T00:07:08.223Z,20.81
2022-08-17T00:08:08.218Z,20.80
2022-08-17T00:09:08.214Z,20.75
2022-08-17T00:10:08.212Z,20.77
2022-08-17T00:11:08.212Z,20.81
2022-08-17T00:12:42.620Z,20.69
2022-08-17T00:13:08.205Z,20.65
2022-08-17T00:14:08.197Z,20.65
2022-08-17T00:15:10.450Z,20.70
2022-08-17T00:16:08.194Z,20.67
2022-08-17T00:17:08.193Z,20.67
2022-08-17T00:18:58.300Z,20.70
2022-08-17T00:19:08.846Z,20.60
2022-08-17T00:20:08.177Z,20.56
2022-08-17T00:21:10.597Z,20.60
2022-08-17T00:22:32.942Z,20.50
2022-08-17T00:23:08.176Z,20.48
2022-08-17T00:24:08.168Z,20.44
2022-08-17T00:25:08.179Z,20.56
2022-08-17T00:26:08.164Z,20.51
2022-08-17T00:27:08.165Z,20.43
2022-08-17T00:28:08.160Z,20.51
2022-08-17T00:29:08.171Z,20.52
2022-08-17T00:30:08.153Z,20.50
2022-08-17T00:31:08.152Z,20.50
2022-08-17T00:33:13.638Z,20.47
2022-08-17T00:33:15.854Z,20.51
2022-08-17T00:34:08.141Z,20.36
2022-08-17T00:35:08.138Z,20.41
2022-08-17T00:36:08.134Z,20.51
2022-08-17T00:37:08.131Z,20.44
2022-08-17T00:38:08.129Z,20.47
2022-08-17T00:39:08.127Z,20.41
2022-08-17T00:40:08.185Z,20.48
2022-08-17T00:41:08.119Z,20.44
2022-08-17T00:42:08.116Z,20.40
2022-08-17T00:43:08.114Z,20.34
2022-08-17T00:44:08.105Z,20.34
2022-08-17T00:45:08.111Z,20.22
2022-08-17T00:46:08.104Z,20.25
2022-08-17T00:47:08.102Z,20.28
2022-08-17T00:48:11.539Z,20.21
2022-08-17T00:49:08.091Z,20.19
2022-08-17T00:50:08.090Z,20.24
2022-08-17T00:51:08.093Z,20.25
2022-08-17T00:52:11.763Z,20.26
2022-08-17T00:53:08.081Z,20.25
2022-08-17T00:54:08.077Z,20.31
2022-08-17T00:55:08.081Z,20.22
2022-08-17T00:56:08.070Z,20.26
2022-08-17T00:57:08.070Z,20.26
2022-08-17T00:58:08.065Z,20.29
2022-08-17T00:59:08.063Z,20.32
2022-08-17T01:00:08.058Z,20.32
2022-08-17T01:01:08.111Z,20.28
2022-08-17T01:02:08.052Z,20.25
2022-08-17T01:03:08.053Z,20.32
2022-08-17T01:04:08.042Z,20.32
2022-08-17T01:05:08.046Z,20.29
2022-08-17T01:06:08.102Z,20.32
2022-08-17T01:07:08.041Z,20.36
2022-08-17T01:08:08.051Z,20.34
2022-08-17T01:09:08.030Z,20.41
2022-08-17T01:10:08.031Z,20.31
2022-08-17T01:11:08.024Z,20.31
2022-08-17T01:12:08.062Z,20.24
2022-08-17T01:13:08.015Z,20.32
2022-08-17T01:14:08.028Z,20.25
2022-08-17T01:15:08.011Z,20.24
2022-08-17T01:16:08.012Z,20.24
2022-08-17T01:17:08.008Z,20.19
2022-08-17T01:18:08.002Z,20.21
2022-08-17T01:19:08.014Z,20.25
2022-08-17T01:20:08.035Z,20.19
2022-08-17T01:21:08.022Z,20.18
2022-08-17T01:22:08.016Z,20.26
2022-08-17T01:23:08.015Z,20.10
2022-08-17T01:24:07.982Z,20.11
2022-08-17T01:25:08.005Z,20.10
2022-08-17T01:26:07.998Z,20.14
2022-08-17T01:27:10.276Z,20.18
2022-08-17T01:28:07.971Z,20.07
2022-08-17T01:29:07.964Z,20.11
2022-08-17T01:30:58.199Z,20.10
2022-08-17T01:31:07.960Z,20.03
2022-08-17T01:32:07.954Z,20.04
2022-08-17T01:33:07.965Z,20.09
2022-08-17T01:34:07.947Z,20.09
2022-08-17T01:35:07.952Z,20.07
2022-08-17T01:36:07.940Z,20.09
2022-08-17T01:37:07.941Z,20.00
2022-08-17T01:38:07.937Z,19.96
2022-08-17T01:39:08.010Z,20.03
2022-08-17T01:40:07.956Z,19.96
2022-08-17T01:41:07.970Z,20.07
2022-08-17T01:42:07.947Z,19.99
2022-08-17T01:43:07.974Z,19.94
2022-08-17T01:44:07.916Z,19.92
2022-08-17T01:45:07.911Z,20.00
2022-08-17T01:46:07.912Z,20.02
2022-08-17T01:47:08.005Z,20.02
2022-08-17T01:48:07.899Z,19.99
2022-08-17T01:49:07.912Z,20.02
2022-08-17T01:50:07.896Z,19.96
2022-08-17T01:51:07.893Z,19.94
2022-08-17T01:52:07.903Z,19.92
2022-08-17T01:53:07.884Z,19.92
2022-08-17T01:54:07.881Z,19.88
2022-08-17T01:55:07.916Z,19.82
2022-08-17T01:56:07.925Z,19.84
2022-08-17T01:57:07.896Z,19.73
2022-08-17T01:58:07.868Z,19.71
2022-08-17T01:59:07.874Z,19.73
2022-08-17T02:00:07.861Z,19.74
2022-08-17T02:01:07.927Z,19.70
2022-08-17T02:02:07.875Z,19.70
2022-08-17T02:03:07.896Z,19.70
2022-08-17T02:04:07.865Z,19.70
2022-08-17T02:05:07.856Z,19.76
2022-08-17T02:06:16.053Z,19.73
2022-08-17T02:07:07.837Z,19.69
2022-08-17T02:08:07.839Z,19.77
2022-08-17T02:09:07.821Z,19.69
2022-08-17T02:10:16.719Z,19.74
2022-08-17T02:11:11.196Z,19.74
2022-08-17T02:12:37.851Z,19.71
2022-08-17T02:13:07.808Z,19.74
2022-08-17T02:14:07.833Z,19.70
2022-08-17T02:15:07.847Z,19.71
2022-08-17T02:16:07.796Z,19.81
2022-08-17T02:17:07.803Z,19.81
2022-08-17T02:18:07.815Z,19.82
2022-08-17T02:19:07.798Z,19.85
2022-08-17T02:20:07.804Z,19.84
2022-08-17T02:21:07.791Z,19.70
2022-08-17T02:22:07.784Z,19.73
2022-08-17T02:23:07.778Z,19.77
2022-08-17T02:24:07.773Z,19.66
2022-08-17T02:25:07.781Z,19.70
2022-08-17T02:26:07.809Z,19.67
2022-08-17T02:27:07.783Z,19.74
2022-08-17T02:28:07.773Z,19.62
2022-08-17T02:29:07.756Z,19.73
2022-08-17T02:31:00.912Z,19.69
2022-08-17T02:31:07.758Z,19.67
2022-08-17T02:32:07.748Z,19.70
2022-08-17T02:33:09.217Z,19.73
2022-08-17T02:34:07.749Z,19.70
2022-08-17T02:35:07.755Z,19.70
2022-08-17T02:36:07.729Z,19.67
2022-08-17T02:37:07.731Z,19.63
2022-08-17T02:38:07.736Z,19.70
2022-08-17T02:39:07.718Z,19.67
2022-08-17T02:40:07.746Z,19.69
2022-08-17T02:41:07.732Z,19.62
2022-08-17T02:42:07.715Z,19.63
2022-08-17T02:43:07.712Z,19.63
2022-08-17T02:44:07.722Z,19.63
2022-08-17T02:45:07.708Z,19.67
2022-08-17T02:46:07.707Z,19.64
2022-08-17T02:47:07.794Z,19.67
2022-08-17T02:48:07.703Z,19.62
2022-08-17T02:49:07.686Z,19.55
2022-08-17T02:50:07.681Z,19.55
2022-08-17T02:51:07.686Z,19.56
2022-08-17T02:52:07.687Z,19.58
2022-08-17T02:53:07.957Z,19.59
2022-08-17T02:54:40.499Z,19.51
2022-08-17T02:55:07.713Z,19.54
2022-08-17T02:56:07.668Z,19.56
2022-08-17T02:57:07.645Z,19.48
2022-08-17T02:58:07.657Z,19.54
2022-08-17T02:59:07.676Z,19.44
2022-08-17T03:00:07.648Z,19.62
2022-08-17T03:01:07.659Z,19.52
2022-08-17T03:02:07.717Z,19.48
2022-08-17T03:03:07.657Z,19.55
2022-08-17T03:04:07.628Z,19.55
2022-08-17T03:05:07.690Z,19.48
2022-08-17T03:06:07.687Z,19.45
2022-08-17T03:07:07.651Z,19.47
2022-08-17T03:08:07.626Z,19.55
2022-08-17T03:09:07.621Z,19.48
2022-08-17T03:10:07.609Z,19.49
2022-08-17T03:11:07.606Z,19.55
2022-08-17T03:12:07.628Z,19.51
2022-08-17T03:13:07.599Z,19.51
2022-08-17T03:14:07.582Z,19.51
2022-08-17T03:15:07.618Z,19.41
2022-08-17T03:16:07.580Z,19.54
2022-08-17T03:17:07.580Z,19.51
2022-08-17T03:18:07.584Z,19.45
2022-08-17T03:19:07.571Z,19.49
2022-08-17T03:20:07.574Z,19.47
2022-08-17T03:21:07.564Z,19.51
2022-08-17T03:22:35.712Z,19.47
2022-08-17T03:23:07.556Z,19.58
2022-08-17T03:24:08.874Z,19.51
2022-08-17T03:25:10.816Z,19.45
2022-08-17T03:26:12.271Z,19.51
2022-08-17T03:27:07.546Z,19.49
2022-08-17T03:28:07.540Z,19.59
2022-08-17T03:29:07.530Z,19.41
2022-08-17T03:30:07.537Z,19.51
2022-08-17T03:31:07.527Z,19.54
2022-08-17T03:32:07.522Z,19.54
2022-08-17T03:33:07.575Z,19.54
2022-08-17T03:34:07.546Z,19.52
2022-08-17T03:35:07.514Z,19.59
2022-08-17T03:36:07.515Z,19.55
2022-08-17T03:37:07.501Z,19.66
2022-08-17T03:38:07.505Z,19.69
2022-08-17T03:39:07.506Z,19.63
2022-08-17T03:40:07.526Z,19.64
2022-08-17T03:41:07.496Z,19.62
2022-08-17T03:42:07.499Z,19.55
2022-08-17T03:43:07.496Z,19.71
2022-08-17T03:44:07.552Z,19.58
2022-08-17T03:45:07.490Z,19.64
2022-08-17T03:46:20.738Z,19.63
2022-08-17T03:47:07.470Z,19.63
2022-08-17T03:48:07.458Z,19.66
2022-08-17T03:49:07.459Z,19.69
2022-08-17T03:50:10.385Z,19.63
2022-08-17T03:51:11.432Z,19.59
2022-08-17T03:52:07.470Z,19.62
2022-08-17T03:53:07.447Z,19.66
2022-08-17T03:54:07.723Z,19.52
2022-08-17T03:55:07.435Z,19.62
2022-08-17T03:56:07.436Z,19.56
2022-08-17T03:57:07.435Z,19.63
2022-08-17T03:58:07.426Z,19.59
2022-08-17T03:59:07.427Z,19.67
2022-08-17T04:00:07.414Z,19.66
2022-08-17T04:01:07.476Z,19.62
2022-08-17T04:02:07.406Z,19.62
2022-08-17T04:03:07.411Z,19.63
2022-08-17T04:04:07.411Z,19.58
2022-08-17T04:05:07.460Z,19.69
2022-08-17T04:06:07.392Z,19.70
2022-08-17T04:07:07.437Z,19.64
2022-08-17T04:08:07.384Z,19.56
2022-08-17T04:09:07.381Z,19.56
2022-08-17T04:10:07.389Z,19.51
2022-08-17T04:11:07.423Z,19.48
2022-08-17T04:12:07.371Z,19.51
2022-08-17T04:13:07.383Z,19.49
2022-08-17T04:14:07.376Z,19.51
2022-08-17T04:15:07.361Z,19.52
2022-08-17T04:16:07.365Z,19.48
2022-08-17T04:17:07.383Z,19.54
2022-08-17T04:18:07.605Z,19.62
2022-08-17T04:19:07.364Z,19.52
2022-08-17T04:20:07.381Z,19.49
2022-08-17T04:21:07.341Z,19.55
2022-08-17T04:22:07.331Z,19.63
2022-08-17T04:23:07.328Z,19.63
2022-08-17T04:24:07.330Z,19.66
2022-08-17T04:25:07.320Z,19.62
2022-08-17T04:26:07.311Z,19.62
2022-08-17T04:27:07.339Z,19.51
2022-08-17T04:28:09.019Z,19.64
2022-08-17T04:29:07.309Z,19.64
2022-08-17T04:30:07.378Z,19.58
2022-08-17T04:31:07.299Z,19.66
2022-08-17T04:32:07.348Z,19.59
2022-08-17T04:33:07.542Z,19.66
2022-08-17T04:34:07.289Z,19.62
2022-08-17T04:35:07.303Z,19.70
2022-08-17T04:36:07.291Z,19.63
2022-08-17T04:37:07.297Z,19.62
2022-08-17T04:38:07.292Z,19.70
2022-08-17T04:39:07.262Z,19.69
2022-08-17T04:40:07.310Z,19.69
2022-08-17T04:41:07.256Z,19.73
2022-08-17T04:42:07.251Z,19.77
2022-08-17T04:43:07.276Z,19.79
2022-08-17T04:44:07.244Z,19.79
2022-08-17T04:45:07.239Z,19.84
2022-08-17T04:46:07.239Z,19.89
2022-08-17T04:47:07.238Z,19.85
2022-08-17T04:48:07.229Z,19.85
2022-08-17T04:49:07.221Z,19.94
2022-08-17T04:50:07.222Z,19.96
2022-08-17T04:51:07.231Z,19.96
2022-08-17T04:52:07.211Z,19.94
2022-08-17T04:53:07.212Z,19.95
2022-08-17T04:54:07.203Z,20.06
2022-08-17T04:55:07.218Z,20.00
2022-08-17T04:56:07.198Z,20.09
2022-08-17T04:57:07.196Z,20.07
2022-08-17T04:58:07.188Z,20.09
2022-08-17T04:59:07.188Z,20.07
2022-08-17T05:00:07.188Z,20.04
2022-08-17T05:01:07.226Z,20.07
2022-08-17T05:02:07.187Z,20.11
2022-08-17T05:03:07.178Z,20.13
2022-08-17T05:04:32.922Z,20.21
2022-08-17T05:05:07.165Z,20.11
2022-08-17T05:06:07.160Z,20.16
2022-08-17T05:07:07.159Z,20.28
2022-08-17T05:08:07.153Z,20.25
2022-08-17T05:09:07.149Z,20.22
2022-08-17T05:10:07.145Z,20.28
2022-08-17T05:11:07.137Z,20.37
2022-08-17T05:12:07.137Z,20.32
2022-08-17T05:13:07.134Z,20.37
2022-08-17T05:14:07.129Z,20.43
2022-08-17T05:15:07.129Z,20.48
2022-08-17T05:16:07.123Z,20.43
2022-08-17T05:17:11.050Z,20.40
2022-08-17T05:18:07.114Z,20.41
2022-08-17T05:19:07.114Z,20.59
2022-08-17T05:20:07.106Z,20.51
2022-08-17T05:21:07.109Z,20.50
2022-08-17T05:22:07.099Z,20.47
2022-08-17T05:23:07.106Z,20.65
2022-08-17T05:24:07.120Z,20.65
2022-08-17T05:25:07.089Z,20.66
2022-08-17T05:26:07.085Z,20.77
2022-08-17T05:27:07.092Z,20.78
2022-08-17T05:28:07.066Z,20.81
2022-08-17T05:29:07.062Z,20.75
2022-08-17T05:30:07.071Z,20.78
2022-08-17T05:31:07.078Z,20.80
2022-08-17T05:32:38.921Z,20.90
2022-08-17T05:33:07.067Z,20.87
2022-08-17T05:34:07.058Z,20.92
2022-08-17T05:35:07.054Z,21.05
2022-08-17T05:36:07.052Z,21.05
2022-08-17T05:37:07.044Z,21.03
2022-08-17T05:38:07.044Z,21.15
2022-08-17T05:39:07.038Z,21.12
2022-08-17T05:40:07.127Z,21.21
2022-08-17T05:41:07.035Z,21.29
2022-08-17T05:42:07.031Z,21.27
2022-08-17T05:43:07.028Z,21.30
2022-08-17T05:44:07.024Z,21.27
2022-08-17T05:45:07.020Z,21.39
2022-08-17T05:46:07.017Z,21.27
2022-08-17T05:47:07.014Z,21.40
2022-08-17T05:48:07.012Z,21.39
2022-08-17T05:49:07.004Z,21.42
2022-08-17T05:50:09.850Z,21.46
2022-08-17T05:51:07.004Z,21.54
2022-08-17T05:52:06.999Z,21.48
2022-08-17T05:53:06.994Z,21.54
2022-08-17T05:54:06.991Z,21.54
2022-08-17T05:55:06.985Z,21.50
2022-08-17T05:56:08.374Z,21.52
2022-08-17T05:57:06.982Z,21.54
2022-08-17T05:58:06.978Z,21.60
2022-08-17T05:59:06.978Z,21.58
2022-08-17T06:00:06.969Z,21.69
2022-08-17T06:01:06.990Z,21.64
2022-08-17T06:02:06.973Z,21.64
2022-08-17T06:03:06.962Z,21.70
2022-08-17T06:04:06.957Z,21.72
2022-08-17T06:05:06.960Z,21.72
2022-08-17T06:06:06.951Z,21.69
2022-08-17T06:07:06.951Z,21.64
2022-08-17T06:08:06.943Z,21.73
2022-08-17T06:09:06.942Z,21.69
2022-08-17T06:10:06.940Z,21.69
2022-08-17T06:11:06.936Z,21.69
2022-08-17T06:12:06.932Z,21.75
2022-08-17T06:13:06.930Z,21.79
2022-08-17T06:14:06.922Z,21.75
2022-08-17T06:15:06.927Z,21.73
2022-08-17T06:16:33.594Z,21.76
2022-08-17T06:17:06.919Z,21.73
2022-08-17T06:18:06.943Z,21.73
2022-08-17T06:19:06.914Z,21.75
2022-08-17T06:20:06.907Z,21.70
2022-08-17T06:21:06.906Z,21.69
2022-08-17T06:22:06.906Z,21.75
2022-08-17T06:23:06.900Z,21.73
2022-08-17T06:24:06.896Z,21.66
2022-08-17T06:25:10.249Z,21.67
2022-08-17T06:26:06.891Z,21.72
2022-08-17T06:27:06.891Z,21.75
2022-08-17T06:28:06.884Z,21.70
2022-08-17T06:29:08.237Z,21.72
2022-08-17T06:30:06.879Z,21.67
2022-08-17T06:31:06.878Z,21.69
2022-08-17T06:32:06.871Z,21.60
2022-08-17T06:33:06.866Z,21.58
2022-08-17T06:34:06.898Z,21.69
2022-08-17T06:35:06.870Z,21.62
2022-08-17T06:36:09.594Z,21.60
2022-08-17T06:37:06.858Z,21.66
2022-08-17T06:38:06.857Z,21.67
2022-08-17T06:39:06.851Z,21.66
2022-08-17T06:40:06.889Z,21.62
2022-08-17T06:41:06.852Z,21.50
2022-08-17T06:42:06.846Z,21.60
2022-08-17T06:43:07.346Z,21.73
2022-08-17T06:44:06.841Z,21.67
2022-08-17T06:45:06.836Z,21.67
2022-08-17T06:46:06.845Z,21.66
2022-08-17T06:47:06.831Z,21.62
2022-08-17T06:48:06.826Z,21.73
2022-08-17T06:49:06.825Z,21.70
2022-08-17T06:50:06.819Z,21.76
2022-08-17T06:51:06.816Z,21.76
2022-08-17T06:52:06.808Z,21.75
2022-08-17T06:53:06.812Z,21.77
2022-08-17T06:54:06.807Z,21.75
2022-08-17T06:55:06.806Z,21.79
2022-08-17T06:56:06.802Z,21.72
2022-08-17T06:57:06.802Z,21.83
2022-08-17T06:58:15.813Z,21.80
2022-08-17T06:59:06.793Z,21.89
2022-08-17T07:00:06.789Z,21.80
2022-08-17T07:01:06.953Z,21.85
2022-08-17T07:02:06.785Z,21.85
2022-08-17T07:03:07.136Z,21.85
2022-08-17T07:04:12.022Z,21.80
2022-08-17T07:05:06.777Z,21.83
2022-08-17T07:06:06.773Z,21.80
2022-08-17T07:07:06.772Z,21.88
2022-08-17T07:08:06.767Z,21.75
2022-08-17T07:09:06.765Z,21.79
2022-08-17T07:10:06.761Z,21.83
2022-08-17T07:11:06.760Z,21.88
2022-08-17T07:12:06.756Z,21.83
2022-08-17T07:13:06.754Z,21.88
2022-08-17T07:14:06.758Z,21.85
2022-08-17T07:15:06.751Z,21.88
2022-08-17T07:16:06.746Z,21.82
2022-08-17T07:17:06.740Z,21.83
2022-08-17T07:18:06.740Z,21.85
2022-08-17T07:19:06.749Z,21.79
2022-08-17T07:20:06.741Z,21.92
2022-08-17T07:21:06.731Z,21.85
2022-08-17T07:22:06.727Z,21.76
2022-08-17T07:23:06.726Z,21.70
2022-08-17T07:24:06.720Z,21.82
2022-08-17T07:25:06.718Z,21.85
2022-08-17T07:26:06.720Z,21.79
2022-08-17T07:27:06.713Z,21.79
2022-08-17T07:28:07.319Z,21.75
2022-08-17T07:29:06.707Z,21.82
2022-08-17T07:30:10.376Z,21.76
2022-08-17T07:31:06.704Z,21.75
2022-08-17T07:32:06.700Z,21.76
2022-08-17T07:33:06.697Z,21.72
2022-08-17T07:34:06.712Z,21.75
2022-08-17T07:35:06.694Z,21.73
2022-08-17T07:36:06.685Z,21.73
2022-08-17T07:37:06.692Z,21.79
2022-08-17T07:38:06.684Z,21.70
2022-08-17T07:39:06.682Z,21.70
2022-08-17T07:40:15.996Z,21.58
2022-08-17T07:41:06.677Z,21.60
2022-08-17T07:42:06.670Z,21.64
2022-08-17T07:43:06.670Z,21.67
2022-08-17T07:44:06.667Z,21.58
2022-08-17T07:45:06.664Z,21.72
2022-08-17T07:46:06.661Z,21.64
2022-08-17T07:47:06.660Z,21.79
2022-08-17T07:48:06.652Z,21.60
2022-08-17T07:49:06.650Z,21.58
2022-08-17T07:50:06.650Z,21.60
2022-08-17T07:51:06.646Z,21.66
2022-08-17T07:52:48.492Z,21.64
2022-08-17T07:53:06.640Z,21.64
2022-08-17T07:54:14.590Z,21.64
2022-08-17T07:55:06.637Z,21.60
2022-08-17T07:56:06.630Z,21.67
2022-08-17T07:57:06.628Z,21.55
2022-08-17T07:58:06.623Z,21.57
2022-08-17T07:59:06.623Z,21.58
2022-08-17T08:00:06.620Z,21.55
2022-08-17T08:01:06.618Z,21.45
2022-08-17T08:02:06.664Z,21.45
2022-08-17T08:03:06.613Z,21.39
2022-08-17T08:04:06.608Z,21.36
2022-08-17T08:05:08.935Z,21.35
2022-08-17T08:06:06.604Z,21.35
2022-08-17T08:07:06.601Z,21.35
2022-08-17T08:08:06.597Z,21.42
2022-08-17T08:09:06.594Z,21.37
2022-08-17T08:10:06.592Z,21.37
2022-08-17T08:11:06.589Z,21.32
2022-08-17T08:12:06.584Z,21.36
2022-08-17T08:13:06.583Z,21.35
2022-08-17T08:14:06.577Z,21.33
2022-08-17T08:15:06.576Z,21.24
2022-08-17T08:16:06.584Z,21.21
2022-08-17T08:17:06.573Z,21.18
2022-08-17T08:18:06.570Z,21.24
2022-08-17T08:19:06.565Z,21.14
2022-08-17T08:20:52.763Z,21.14
2022-08-17T08:21:06.558Z,21.12
2022-08-17T08:22:06.560Z,21.09
2022-08-17T08:23:06.555Z,20.99
2022-08-17T08:24:06.544Z,21.03
2022-08-17T08:25:06.547Z,20.93
2022-08-17T08:26:06.542Z,21.02
2022-08-17T08:27:06.543Z,21.00
2022-08-17T08:28:06.538Z,20.99
2022-08-17T08:29:06.538Z,21.02
2022-08-17T08:30:06.536Z,20.87
2022-08-17T08:31:06.542Z,20.97
2022-08-17T08:32:06.524Z,21.00
2022-08-17T08:33:06.523Z,21.02
2022-08-17T08:34:06.526Z,20.96
2022-08-17T08:35:06.527Z,21.05
2022-08-17T08:36:06.518Z,21.06
2022-08-17T08:37:17.162Z,21.15
2022-08-17T08:38:06.513Z,21.17
2022-08-17T08:39:06.506Z,21.03
2022-08-17T08:40:06.559Z,21.00
2022-08-17T08:41:06.502Z,20.93
2022-08-17T08:42:06.499Z,20.95
2022-08-17T08:43:06.499Z,20.96
2022-08-17T08:44:06.495Z,21.03
2022-08-17T08:45:06.491Z,21.05
2022-08-17T08:46:06.490Z,21.00
2022-08-17T08:47:06.486Z,21.05
2022-08-17T08:48:06.484Z,21.12
2022-08-17T08:49:12.092Z,21.12
2022-08-17T08:50:06.479Z,21.17
2022-08-17T08:51:06.470Z,21.24
2022-08-17T08:52:06.472Z,21.24
2022-08-17T08:53:06.475Z,21.22
2022-08-17T08:54:06.467Z,21.25
2022-08-17T08:55:06.463Z,21.22
2022-08-17T08:56:06.461Z,21.29
2022-08-17T08:57:36.413Z,21.32
2022-08-17T08:58:06.455Z,21.29
2022-08-17T08:59:06.448Z,21.42
2022-08-17T09:00:06.450Z,21.37
2022-08-17T09:01:06.530Z,21.43
2022-08-17T09:02:06.510Z,21.36
2022-08-17T09:03:06.471Z,21.39
2022-08-17T09:04:23.233Z,21.42
2022-08-17T09:05:15.002Z,21.48
2022-08-17T09:06:06.434Z,21.45
2022-08-17T09:07:06.439Z,21.32
2022-08-17T09:08:06.427Z,21.24
2022-08-17T09:09:06.418Z,21.17
2022-08-17T09:10:06.430Z,21.14
2022-08-17T09:11:06.421Z,21.20
2022-08-17T09:12:06.416Z,21.24
2022-08-17T09:13:10.116Z,21.24
2022-08-17T09:14:06.399Z,21.32
2022-08-17T09:15:12.345Z,21.33
2022-08-17T09:16:06.403Z,21.21
2022-08-17T09:17:06.403Z,21.14
2022-08-17T09:18:59.896Z,21.15
2022-08-17T09:19:06.610Z,21.22
2022-08-17T09:20:06.394Z,21.30
2022-08-17T09:21:06.390Z,21.39
2022-08-17T09:22:06.385Z,21.46
2022-08-17T09:23:06.388Z,21.54
2022-08-17T09:24:06.383Z,21.60
2022-08-17T09:25:06.430Z,21.67
2022-08-17T09:26:06.378Z,21.70
2022-08-17T09:27:06.375Z,21.85
2022-08-17T09:28:06.373Z,21.83
2022-08-17T09:29:06.367Z,22.00
2022-08-17T09:30:06.361Z,22.07
2022-08-17T09:31:06.365Z,22.17
2022-08-17T09:32:06.364Z,22.11
2022-08-17T09:33:06.361Z,22.22
2022-08-17T09:34:06.350Z,22.26
2022-08-17T09:35:06.375Z,22.26
2022-08-17T09:36:06.359Z,22.33
2022-08-17T09:37:06.353Z,22.32
2022-08-17T09:38:06.355Z,22.51
2022-08-17T09:39:06.345Z,22.55
2022-08-17T09:40:06.410Z,22.57
2022-08-17T09:41:06.340Z,22.62
2022-08-17T09:42:06.342Z,22.63
2022-08-17T09:43:06.337Z,22.66
2022-08-17T09:44:08.557Z,22.62
2022-08-17T09:45:06.330Z,22.70
2022-08-17T09:46:06.334Z,22.66
2022-08-17T09:47:06.331Z,22.81
2022-08-17T09:48:06.330Z,22.73
2022-08-17T09:49:06.322Z,22.80
2022-08-17T09:50:06.327Z,22.78
2022-08-17T09:51:06.764Z,22.80
2022-08-17T09:52:06.323Z,22.81
2022-08-17T09:53:06.330Z,22.94
2022-08-17T09:54:37.029Z,23.02
2022-08-17T09:55:06.316Z,23.08
2022-08-17T09:56:06.315Z,23.05
2022-08-17T09:57:28.610Z,23.08
2022-08-17T09:58:06.313Z,23.13
2022-08-17T09:59:06.309Z,23.24
2022-08-17T10:00:06.305Z,23.31
2022-08-17T10:01:06.356Z,23.39
2022-08-17T10:02:06.302Z,23.41
2022-08-17T10:03:06.302Z,23.46
2022-08-17T10:04:06.299Z,23.43
2022-08-17T10:05:06.297Z,23.44
2022-08-17T10:06:06.584Z,23.41
2022-08-17T10:07:06.292Z,23.50
2022-08-17T10:08:06.294Z,23.55
2022-08-17T10:09:06.290Z,23.56
2022-08-17T10:10:09.633Z,23.69
2022-08-17T10:11:06.291Z,23.73
2022-08-17T10:12:06.291Z,23.61
2022-08-17T10:13:06.294Z,23.59
2022-08-17T10:14:12.523Z,23.77
2022-08-17T10:15:08.128Z,23.81
2022-08-17T10:16:06.284Z,23.84
2022-08-17T10:17:06.283Z,23.92
2022-08-17T10:18:06.281Z,23.93
2022-08-17T10:19:06.268Z,23.95
2022-08-17T10:20:06.279Z,23.98
2022-08-17T10:21:06.278Z,24.08
2022-08-17T10:22:14.955Z,24.03
2022-08-17T10:23:06.277Z,24.05
2022-08-17T10:24:06.277Z,24.01
2022-08-17T10:25:22.962Z,24.21
2022-08-17T10:26:06.271Z,24.20
2022-08-17T10:27:06.270Z,24.18
2022-08-17T10:28:06.269Z,24.11
2022-08-17T10:29:06.270Z,24.20
2022-08-17T10:30:06.270Z,24.26
2022-08-17T10:31:36.240Z,24.32
2022-08-17T10:32:06.265Z,24.32
2022-08-17T10:33:06.265Z,24.38
2022-08-17T10:34:06.264Z,24.29
2022-08-17T10:35:06.259Z,24.35
2022-08-17T10:36:10.540Z,24.30
2022-08-17T10:37:06.259Z,24.23
2022-08-17T10:38:06.259Z,24.32
2022-08-17T10:39:06.256Z,24.29
2022-08-17T10:40:06.307Z,24.18
2022-08-17T10:41:07.227Z,24.17
2022-08-17T10:42:06.257Z,24.17
2022-08-17T10:43:06.250Z,24.21
2022-08-17T10:44:39.095Z,24.17
2022-08-17T10:45:06.248Z,24.16
2022-08-17T10:46:10.671Z,24.08
2022-08-17T10:47:06.248Z,24.08
2022-08-17T10:48:07.194Z,24.14
2022-08-17T10:49:06.245Z,24.13
2022-08-17T10:50:06.245Z,24.10
2022-08-17T10:51:06.263Z,24.06
2022-08-17T10:52:06.241Z,24.06
2022-08-17T10:53:06.239Z,24.10
2022-08-17T10:54:06.239Z,24.03
2022-08-17T10:55:06.241Z,23.99
2022-08-17T10:56:06.239Z,24.02
2022-08-17T10:57:06.253Z,23.95
2022-08-17T10:58:06.234Z,24.01
2022-08-17T10:59:06.230Z,23.98
2022-08-17T11:00:06.232Z,23.96
2022-08-17T11:01:06.299Z,23.99
2022-08-17T11:02:06.230Z,23.98
2022-08-17T11:03:06.236Z,24.03
2022-08-17T11:04:06.225Z,24.10
2022-08-17T11:05:06.223Z,24.03
2022-08-17T11:06:06.224Z,24.18
2022-08-17T11:07:06.219Z,24.18
2022-08-17T11:08:06.220Z,24.16
2022-08-17T11:09:06.219Z,24.26
2022-08-17T11:10:06.216Z,24.24
2022-08-17T11:11:06.217Z,24.36
2022-08-17T11:12:06.214Z,24.38
2022-08-17T11:13:06.201Z,24.53
2022-08-17T11:14:06.220Z,24.54
2022-08-17T11:15:06.210Z,24.57
2022-08-17T11:16:08.420Z,24.51
2022-08-17T11:17:06.205Z,24.58
2022-08-17T11:18:06.254Z,24.70
2022-08-17T11:19:06.202Z,24.68
2022-08-17T11:20:06.201Z,24.84
2022-08-17T11:21:06.203Z,24.89
2022-08-17T11:22:06.199Z,25.01
2022-08-17T11:23:06.201Z,25.06
2022-08-17T11:24:06.214Z,25.21
2022-08-17T11:25:06.196Z,25.35
2022-08-17T11:26:06.198Z,25.43
2022-08-17T11:27:06.196Z,25.55
2022-08-17T11:28:06.194Z,25.78
2022-08-17T11:29:06.193Z,25.96
2022-08-17T11:30:06.192Z,26.03
2022-08-17T11:31:06.191Z,26.18
2022-08-17T11:32:06.191Z,26.25
2022-08-17T11:33:06.190Z,26.38
2022-08-17T11:34:06.188Z,26.40
2022-08-17T11:35:06.189Z,26.56
2022-08-17T11:36:06.188Z,26.53
2022-08-17T11:37:06.187Z,26.55
2022-08-17T11:38:08.674Z,26.65
2022-08-17T11:39:06.191Z,26.56
2022-08-17T11:40:06.333Z,26.55
2022-08-17T11:41:06.181Z,26.70
2022-08-17T11:42:06.188Z,26.77
2022-08-17T11:43:06.189Z,26.97
2022-08-17T11:44:06.183Z,26.96
2022-08-17T11:45:06.184Z,27.07
2022-08-17T11:46:06.187Z,27.15
2022-08-17T11:47:06.181Z,27.39
2022-08-17T11:49:06.181Z,27.73
2022-08-17T11:50:06.187Z,27.89
2022-08-17T11:51:06.186Z,28.05
2022-08-17T11:52:06.186Z,28.14
2022-08-17T11:53:06.187Z,28.20
2022-08-17T11:54:31.599Z,28.23
2022-08-17T11:55:31.953Z,28.32
2022-08-17T11:56:06.235Z,28.45
2022-08-17T11:57:06.191Z,28.44
2022-08-17T11:58:06.193Z,28.37
2022-08-17T11:59:06.190Z,28.52
2022-08-17T12:00:06.206Z,28.44
2022-08-17T12:01:06.306Z,28.52
2022-08-17T12:02:06.199Z,28.49
2022-08-17T12:03:06.226Z,28.41
2022-08-17T12:04:06.252Z,28.30
2022-08-17T12:05:12.064Z,28.17
2022-08-17T12:06:06.203Z,28.14
2022-08-17T12:07:06.211Z,28.15
2022-08-17T12:08:06.207Z,28.25
2022-08-17T12:09:06.206Z,28.35
2022-08-17T12:10:06.215Z,28.37
2022-08-17T12:11:06.212Z,28.45
2022-08-17T12:12:13.082Z,28.48
2022-08-17T12:13:06.223Z,28.45
2022-08-17T12:14:06.219Z,28.30
2022-08-17T12:15:10.520Z,28.26
2022-08-17T12:16:06.225Z,28.20
2022-08-17T12:17:06.234Z,28.10
2022-08-17T12:18:06.226Z,28.02
2022-08-17T12:19:06.227Z,27.92
2022-08-17T12:20:06.230Z,27.87
2022-08-17T12:21:06.233Z,27.77
2022-08-17T12:22:06.234Z,27.89
2022-08-17T12:23:06.232Z,27.83
2022-08-17T12:24:06.235Z,27.86
2022-08-17T12:25:06.232Z,27.83
2022-08-17T12:26:06.241Z,27.75
2022-08-17T12:27:06.244Z,27.71
2022-08-17T12:28:07.661Z,27.64
2022-08-17T12:29:06.240Z,27.67
2022-08-17T12:30:06.344Z,27.55
2022-08-17T12:31:06.243Z,27.55
2022-08-17T12:32:06.246Z,27.42
2022-08-17T12:33:06.247Z,27.36
2022-08-17T12:34:06.249Z,27.36
2022-08-17T12:35:06.255Z,27.49
2022-08-17T12:36:06.254Z,27.49
2022-08-17T12:37:06.250Z,27.58
2022-08-17T12:38:06.252Z,27.59
2022-08-17T12:39:14.287Z,27.77
2022-08-17T12:40:06.382Z,27.92
2022-08-17T12:41:06.257Z,28.04
2022-08-17T12:42:06.252Z,28.14
2022-08-17T12:43:06.255Z,28.22
2022-08-17T12:44:06.252Z,28.38
2022-08-17T12:45:06.259Z,28.42
2022-08-17T12:46:13.259Z,28.52
2022-08-17T12:47:06.264Z,28.52
2022-08-17T12:48:06.255Z,28.64
2022-08-17T12:49:06.266Z,28.64
2022-08-17T12:50:06.263Z,28.82
2022-08-17T12:51:06.270Z,28.79
2022-08-17T12:52:06.267Z,28.89
2022-08-17T12:53:06.270Z,28.85